createdAt,value
2023-05-12T00:02:36.743Z,10.00
2023-05-12T00:07:40.195Z,9.90
2023-05-12T00:12:45.995Z,9.80
2023-05-12T00:17:48.804Z,9.90
2023-05-12T00:22:51.631Z,9.70
2023-05-12T00:27:55.578Z,9.70
2023-05-12T00:32:59.816Z,9.60
2023-05-12T00:38:03.754Z,9.50
2023-05-12T00:43:09.420Z,9.40
2023-05-12T00:48:18.314Z,9.50
2023-05-12T00:53:21.514Z,9.50
2023-05-12T00:58:25.624Z,9.30
2023-05-12T01:03:29.830Z,9.20
2023-05-12T01:08:35.413Z,9.10
2023-05-12T01:13:39.650Z,9.10
2023-05-12T01:18:50.165Z,9.00
2023-05-12T01:23:58.974Z,9.00
2023-05-12T01:29:05.221Z,8.70
2023-05-12T01:34:50.987Z,8.80
2023-05-12T01:39:55.371Z,8.80
2023-05-12T01:44:59.606Z,8.50
2023-05-12T01:50:03.648Z,8.40
2023-05-12T01:55:08.626Z,8.40
2023-05-12T02:00:19.735Z,8.40
2023-05-12T02:05:29.584Z,8.20
2023-05-12T02:10:33.256Z,8.10
2023-05-12T02:15:36.030Z,8.10
2023-05-12T02:20:39.343Z,8.10
2023-05-12T02:25:42.205Z,8.00
2023-05-12T02:30:50.138Z,8.00
2023-05-12T02:35:56.586Z,7.80
2023-05-12T02:40:59.845Z,7.80
2023-05-12T02:46:03.021Z,7.80
2023-05-12T02:51:06.078Z,7.80
2023-05-12T02:56:08.981Z,7.80
2023-05-12T03:01:12.245Z,7.80
2023-05-12T03:06:18.115Z,8.00
2023-05-12T03:11:21.908Z,7.90
2023-05-12T03:16:27.198Z,8.40
2023-05-12T03:21:30.771Z,8.90
2023-05-12T03:26:34.951Z,8.90
2023-05-12T03:31:37.973Z,9.50
2023-05-12T03:36:41.273Z,10.10
2023-05-12T03:41:43.990Z,10.70
2023-05-12T03:46:47.952Z,11.30
2023-05-12T03:51:50.578Z,12.00
2023-05-12T03:56:54.875Z,12.70
2023-05-12T04:01:59.004Z,13.20
2023-05-12T04:07:04.139Z,14.00
2023-05-12T04:12:07.111Z,14.70
2023-05-12T04:17:10.878Z,15.00
2023-05-12T04:22:13.710Z,15.40
2023-05-12T04:27:16.522Z,15.50
2023-05-12T04:32:20.357Z,16.00
2023-05-12T04:37:23.131Z,16.60
2023-05-12T04:42:26.875Z,17.30
2023-05-12T04:47:29.857Z,17.40
2023-05-12T04:52:33.370Z,17.30
2023-05-12T04:57:36.519Z,17.70
2023-05-12T05:02:40.440Z,18.40
2023-05-12T05:07:43.454Z,18.60
2023-05-12T05:12:47.346Z,18.40
2023-05-12T05:17:53.919Z,19.10
2023-05-12T05:22:58.402Z,19.60
2023-05-12T05:28:02.155Z,20.20
2023-05-12T05:33:07.209Z,19.90
2023-05-12T05:38:13.268Z,20.30
2023-05-12T05:43:25.462Z,20.60
2023-05-12T05:48:28.815Z,20.50
2023-05-12T05:53:32.255Z,20.60
2023-05-12T05:58:36.187Z,18.90
2023-05-12T06:03:40.393Z,16.40
2023-05-12T06:08:43.503Z,15.60
2023-05-12T06:13:46.646Z,15.40
2023-05-12T06:18:55.400Z,15.40
2023-05-12T06:23:59.660Z,15.30
2023-05-12T06:29:03.044Z,15.30
2023-05-12T06:34:08.018Z,15.30
2023-05-12T06:39:19.165Z,15.40
2023-05-12T06:44:22.305Z,15.50
2023-05-12T06:49:36.016Z,15.50
2023-05-12T06:54:43.985Z,15.70
2023-05-12T07:04:55.149Z,15.70
2023-05-12T07:10:01.032Z,15.90
2023-05-12T07:15:06.788Z,16.00
2023-05-12T07:20:11.792Z,16.00
2023-05-12T07:25:23.762Z,16.00
2023-05-12T07:30:39.642Z,16.30
2023-05-12T07:35:46.637Z,16.50
2023-05-12T07:40:49.703Z,16.70
2023-05-12T07:45:56.304Z,16.70
2023-05-12T07:50:59.247Z,16.90
2023-05-12T07:56:02.256Z,16.90
2023-05-12T08:01:06.992Z,16.90
2023-05-12T08:06:18.674Z,16.80
2023-05-12T08:11:23.509Z,16.90
2023-05-12T08:16:27.566Z,17.00
2023-05-12T08:21:36.407Z,17.00
2023-05-12T08:26:50.863Z,17.00
2023-05-12T08:32:08.830Z,17.30
2023-05-12T08:37:55.668Z,17.50
2023-05-12T08:43:07.892Z,17.60
2023-05-12T08:48:20.819Z,17.80
2023-05-12T08:53:29.309Z,17.80
2023-05-12T08:58:59.820Z,17.90
2023-05-12T09:04:07.253Z,17.80
2023-05-12T09:09:14.322Z,16.70
2023-05-12T09:19:50.743Z,18.10
2023-05-12T09:24:59.989Z,18.30
2023-05-12T09:30:07.894Z,18.50
2023-05-12T09:35:19.124Z,18.30
2023-05-12T09:40:40.045Z,18.40
2023-05-12T09:46:06.830Z,18.60
2023-05-12T09:51:24.210Z,19.00
2023-05-12T09:56:38.281Z,18.80
2023-05-12T10:01:49.319Z,18.90
2023-05-12T10:06:57.196Z,18.90
2023-05-12T10:12:25.601Z,18.90
2023-05-12T10:18:05.892Z,19.00
2023-05-12T10:23:19.214Z,19.50
2023-05-12T10:28:27.651Z,19.70
2023-05-12T10:33:37.190Z,19.20
2023-05-12T10:38:59.762Z,18.90
2023-05-12T10:44:15.571Z,19.00
2023-05-12T10:49:36.121Z,19.50
2023-05-12T10:54:47.509Z,19.40
2023-05-12T11:00:00.878Z,19.40
2023-05-12T11:05:13.395Z,19.20
2023-05-12T11:10:17.511Z,19.20
2023-05-12T11:15:21.952Z,19.00
2023-05-12T11:20:28.105Z,19.20
2023-05-12T11:25:35.830Z,19.50
2023-05-12T11:30:48.301Z,19.50
2023-05-12T11:35:53.797Z,19.60
2023-05-12T11:40:58.106Z,19.90
2023-05-12T11:46:02.542Z,19.80
2023-05-12T11:51:05.472Z,19.70
2023-05-12T11:56:08.235Z,19.90
2023-05-12T12:01:13.868Z,20.50
2023-05-12T12:06:20.811Z,19.70
2023-05-12T12:11:31.611Z,19.60
2023-05-12T12:16:35.326Z,18.80
2023-05-12T12:21:45.993Z,18.40
2023-05-12T12:27:02.382Z,19.10
2023-05-12T12:32:06.005Z,19.50
2023-05-12T12:37:15.643Z,19.60
2023-05-12T12:42:18.337Z,19.10
2023-05-12T12:47:23.849Z,19.10
2023-05-12T12:52:27.020Z,18.80
2023-05-12T12:57:37.887Z,18.60
2023-05-12T13:02:41.020Z,18.60
2023-05-12T13:07:45.360Z,18.70
2023-05-12T13:12:47.954Z,18.50
2023-05-12T13:17:52.510Z,18.70
2023-05-12T13:22:55.398Z,18.50
2023-05-12T13:28:08.892Z,19.20
2023-05-12T13:33:12.727Z,19.00
2023-05-12T13:38:21.119Z,18.70
2023-05-12T13:43:29.176Z,18.70
2023-05-12T13:48:36.392Z,19.00
2023-05-12T13:53:43.337Z,18.90
2023-05-12T13:58:53.513Z,19.10
2023-05-12T14:04:04.045Z,19.40
2023-05-12T14:09:08.801Z,19.60
2023-05-12T14:14:11.753Z,19.50
2023-05-12T14:19:14.718Z,19.50
2023-05-12T14:24:18.073Z,19.10
2023-05-12T14:29:23.771Z,19.20
2023-05-12T14:34:29.621Z,19.60
2023-05-12T14:39:35.805Z,19.40
2023-05-12T14:44:38.470Z,18.90
2023-05-12T14:49:42.850Z,18.90
2023-05-12T14:54:46.784Z,19.20
2023-05-12T14:59:52.772Z,19.30
2023-05-12T15:04:57.633Z,19.40
2023-05-12T15:10:05.976Z,18.70
2023-05-12T15:15:11.751Z,18.30
2023-05-12T15:20:15.072Z,18.10
2023-05-12T15:25:18.871Z,18.10
2023-05-12T15:30:22.116Z,18.40
2023-05-12T15:35:28.429Z,18.60
2023-05-12T15:40:31.471Z,18.40
2023-05-12T15:45:37.438Z,18.50
2023-05-12T15:50:40.795Z,18.60
2023-05-12T15:55:44.328Z,18.50
2023-05-12T16:01:07.042Z,18.60
2023-05-12T16:06:10.077Z,18.50
2023-05-12T16:11:13.197Z,18.40
2023-05-12T16:16:15.911Z,18.30
2023-05-12T16:21:19.973Z,18.30
2023-05-12T16:26:22.515Z,18.30
2023-05-12T16:31:25.140Z,18.20
2023-05-12T16:36:29.784Z,18.00
2023-05-12T16:41:32.351Z,17.90
2023-05-12T16:46:35.978Z,17.90
2023-05-12T16:51:41.184Z,17.50
2023-05-12T16:56:43.942Z,17.50
2023-05-12T17:01:47.144Z,18.00
2023-05-12T17:06:50.763Z,17.80
2023-05-12T17:11:53.319Z,17.90
2023-05-12T17:16:55.763Z,17.90
2023-05-12T17:21:58.222Z,18.00
2023-05-12T17:27:01.222Z,17.90
2023-05-12T17:32:03.990Z,17.30
2023-05-12T17:37:06.690Z,17.20
2023-05-12T17:42:09.274Z,17.10
2023-05-12T17:47:13.984Z,16.90
2023-05-12T17:52:16.807Z,16.80
2023-05-12T17:57:19.218Z,16.90
2023-05-12T18:02:22.245Z,16.40
2023-05-12T18:07:25.205Z,16.20
2023-05-12T18:12:27.781Z,15.70
2023-05-12T18:17:30.914Z,15.30
2023-05-12T18:22:33.519Z,15.10
2023-05-12T18:27:36.688Z,14.90
2023-05-12T18:32:41.858Z,14.90
2023-05-12T18:37:44.408Z,14.50
2023-05-12T18:42:47.568Z,14.30
2023-05-12T18:47:50.103Z,13.90
2023-05-12T18:52:52.549Z,13.90
2023-05-12T18:57:55.616Z,13.90
2023-05-12T19:02:59.152Z,13.60
2023-05-12T19:08:02.077Z,13.30
2023-05-12T19:13:04.857Z,13.30
2023-05-12T19:18:07.615Z,13.20
2023-05-12T19:23:10.179Z,13.10
2023-05-12T19:28:12.865Z,12.90
2023-05-12T19:33:17.328Z,12.80
2023-05-12T19:38:20.054Z,12.70
2023-05-12T19:43:22.760Z,12.60
2023-05-12T19:48:25.339Z,12.40
2023-05-12T19:53:28.032Z,12.40
2023-05-12T19:58:30.510Z,12.30
2023-05-12T20:03:33.225Z,12.10
2023-05-12T20:08:35.841Z,12.00
2023-05-12T20:13:38.669Z,11.60
2023-05-12T20:18:41.172Z,11.50
2023-05-12T20:23:43.770Z,11.20
2023-05-12T20:28:46.394Z,11.30
2023-05-12T20:33:48.841Z,11.30
2023-05-12T20:38:51.783Z,11.10
2023-05-12T20:43:54.250Z,10.40
2023-05-12T20:48:59.790Z,9.70
2023-05-12T20:54:02.293Z,9.20
2023-05-12T20:59:05.017Z,8.80
2023-05-12T21:04:07.831Z,8.20
2023-05-12T21:09:10.304Z,7.90
2023-05-12T21:14:12.900Z,7.90
2023-05-12T21:19:15.395Z,8.30
2023-05-12T21:24:17.968Z,7.40
2023-05-12T21:29:20.544Z,7.20
2023-05-12T21:34:23.339Z,6.80
2023-05-12T21:39:25.796Z,6.90
2023-05-12T21:44:28.298Z,7.10
2023-05-12T21:49:31.104Z,7.20
2023-05-12T21:54:33.834Z,8.40
2023-05-12T21:59:36.790Z,8.60
2023-05-12T22:04:39.302Z,8.60
2023-05-12T22:09:41.774Z,8.60
2023-05-12T22:14:45.305Z,8.70
2023-05-12T22:19:47.809Z,8.80
2023-05-12T22:24:50.420Z,9.00
2023-05-12T22:29:52.987Z,9.00
2023-05-12T22:34:56.076Z,9.20
2023-05-12T22:39:58.626Z,9.20
2023-05-12T22:45:04.634Z,9.10
2023-05-12T22:50:07.543Z,9.10
2023-05-12T22:55:10.475Z,9.00
2023-05-12T23:00:14.337Z,8.90
2023-05-12T23:05:17.104Z,8.90
2023-05-12T23:10:19.918Z,9.00
2023-05-12T23:15:22.851Z,8.80
2023-05-12T23:20:25.563Z,8.70
2023-05-12T23:25:28.330Z,8.40
2023-05-12T23:30:32.226Z,7.90
2023-05-12T23:35:34.726Z,7.80
2023-05-12T23:40:39.346Z,7.90
2023-05-12T23:45:42.361Z,8.30
2023-05-12T23:50:44.897Z,8.20
2023-05-12T23:55:47.826Z,8.40
